Time;durP1;ratioP1;P1;durP2;ratioP2;P2;SDS_P1;SDS_P2;PMS_P1;PMS_P2;Temp;Humidity;BMP_temperature;BMP_pressure;BME280_temperature;BME280_humidity;BME280_pressure;Samples;Min_cycle;Max_cycle;Signal;HPM_P1;HPM_P2
2022/09/01 00:01:52;;;;;;;;;22.00;20.20;;;;;29.83;44.51;98963.66;5130090;27;8956;-83
2022/09/01 00:04:25;;;;;;;;;27.60;27.60;;;;;29.82;44.74;98961.09;5094348;27;8853;-81
2022/09/01 00:06:55;;;;;;;;;27.00;25.00;;;;;29.86;44.85;98957.97;5111425;27;8837;-79
2022/09/01 00:09:24;;;;;;;;;29.60;29.00;;;;;29.89;44.32;98956.88;5100555;27;8842;-80
2022/09/01 00:11:54;;;;;;;;;31.00;28.40;;;;;29.98;44.65;98960.53;5129174;27;8862;-78
2022/09/01 00:14:28;;;;;;;;;30.60;30.00;;;;;29.99;44.46;98956.88;5111125;27;8849;-83
2022/09/01 00:17:01;;;;;;;;;26.20;24.60;;;;;30.00;44.54;98955.88;5112233;27;8830;-78
2022/09/01 00:19:32;;;;;;;;;30.60;27.00;;;;;29.98;44.40;98952.47;5107761;27;8862;-79
2022/09/01 00:22:01;;;;;;;;;29.40;28.60;;;;;29.98;44.31;98953.34;5152287;27;8875;-79
2022/09/01 00:24:30;;;;;;;;;29.40;28.60;;;;;29.99;44.02;98952.34;5151411;27;8951;-80
2022/09/01 00:26:59;;;;;;;;;26.60;25.80;;;;;29.96;44.59;98954.47;5115562;27;8815;-79
2022/09/01 00:29:28;;;;;;;;;24.80;23.60;;;;;29.97;44.71;98945.41;5131134;27;8835;-79
2022/09/01 00:31:56;;;;;;;;;30.80;25.60;;;;;29.98;44.72;98944.41;5150271;27;8970;-79
2022/09/01 00:34:26;;;;;;;;;27.20;25.00;;;;;30.00;44.38;98946.00;5131877;27;8978;-79
2022/09/01 00:36:55;;;;;;;;;25.00;24.40;;;;;29.95;44.68;98942.03;5149994;27;8883;-78
2022/09/01 00:39:24;;;;;;;;;24.80;23.80;;;;;29.94;44.38;98949.22;5080089;27;9612;-81
2022/09/01 00:41:52;;;;;;;;;28.00;27.80;;;;;29.95;44.32;98953.63;5129714;27;9607;-80
2022/09/01 00:44:25;;;;;;;;;27.40;26.20;;;;;29.96;44.43;98952.59;5110660;27;8834;-79
2022/09/01 00:46:57;;;;;;;;;26.80;25.60;;;;;29.94;44.40;98954.59;5129871;27;8846;-76
2022/09/01 00:49:32;;;;;;;;;30.60;25.80;;;;;30.05;44.72;98953.63;5128027;27;9584;-85
2022/09/01 00:52:06;;;;;;;;;25.80;25.60;;;;;30.01;44.69;98962.97;5130621;27;8866;-82
2022/09/01 00:54:40;;;;;;;;;20.60;20.20;;;;;29.93;44.47;98958.28;5116752;27;8874;-77
2022/09/01 00:57:11;;;;;;;;;22.60;21.80;;;;;29.88;45.06;98957.84;5129425;27;8854;-78
2022/09/01 00:59:49;;;;;;;;;23.60;22.40;;;;;29.92;44.87;98954.75;5122098;27;8837;-78
2022/09/01 01:02:17;;;;;;;;;22.00;22.00;;;;;29.81;44.73;98970.13;5109914;28;8845;-78
2022/09/01 01:04:47;;;;;;;;;19.60;19.60;;;;;29.77;45.32;98961.50;5109522;28;8845;-78
2022/09/01 01:07:17;;;;;;;;;22.40;22.40;;;;;29.76;44.96;98964.34;5108422;28;8937;-79
2022/09/01 01:09:46;;;;;;;;;25.80;24.20;;;;;29.74;44.98;98965.31;5108019;28;10208;-81
2022/09/01 01:12:17;;;;;;;;;22.40;20.40;;;;;29.66;45.13;98977.69;5112340;28;8841;-77
2022/09/01 01:14:49;;;;;;;;;24.00;23.00;;;;;29.48;45.95;98977.50;5110693;27;8838;-78
2022/09/01 01:17:20;;;;;;;;;22.60;22.60;;;;;29.41;46.29;98979.88;5111175;27;8838;-78
2022/09/01 01:23:07;;;;;;;;;25.40;25.00;;;;;29.71;45.58;98972.75;5112472;28;8852;-80
2022/09/01 01:25:43;;;;;;;;;21.00;19.80;;;;;29.73;45.83;98970.81;5107116;28;9618;-80
2022/09/01 01:28:17;;;;;;;;;23.40;22.40;;;;;29.72;45.52;98977.16;5068731;28;8927;-79
2022/09/01 01:30:52;;;;;;;;;22.20;21.80;;;;;29.76;45.19;98969.72;5085968;28;9914;-81
2022/09/01 01:33:26;;;;;;;;;25.00;23.80;;;;;29.77;45.31;98969.56;5070885;28;8984;-79
2022/09/01 01:35:56;;;;;;;;;25.40;24.40;;;;;29.79;45.51;98970.25;5102168;28;8839;-78
2022/09/01 01:38:28;;;;;;;;;28.00;26.60;;;;;29.74;45.62;98964.47;5052849;28;8855;-77
2022/09/01 01:41:00;;;;;;;;;29.80;29.00;;;;;29.54;45.87;98966.19;5069047;28;9615;-79
2022/09/01 01:43:29;;;;;;;;;25.60;23.40;;;;;29.53;46.25;98961.84;5069337;28;8844;-80
2022/09/01 01:46:01;;;;;;;;;25.00;22.40;;;;;29.55;45.77;98960.69;5028812;28;8828;-83
2022/09/01 01:48:38;;;;;;;;;28.40;27.20;;;;;29.54;45.83;98958.97;5034867;28;8875;-78
2022/09/01 01:51:09;;;;;;;;;24.00;24.00;;;;;29.59;46.32;98949.69;5048480;28;8877;-81
2022/09/01 01:53:38;;;;;;;;;30.20;27.20;;;;;29.64;45.72;98950.09;5048316;28;8856;-80
2022/09/01 01:56:08;;;;;;;;;30.60;27.40;;;;;29.66;46.06;98953.50;5048290;28;8857;-80
2022/09/01 01:58:39;;;;;;;;;28.60;26.40;;;;;29.62;46.30;98955.66;5048002;28;8855;-80
2022/09/01 02:01:12;;;;;;;;;27.80;26.60;;;;;29.70;45.60;98957.66;5048038;28;8879;-80
2022/09/01 02:03:41;;;;;;;;;28.00;26.60;;;;;29.60;45.69;98957.59;5048734;28;8879;-79
2022/09/01 02:06:11;;;;;;;;;32.75;29.75;;;;;29.59;46.03;98966.66;5070095;28;8927;-79
2022/09/01 02:08:43;;;;;;;;;28.00;27.60;;;;;29.67;45.73;98963.28;5088428;28;8926;-79
2022/09/01 02:11:16;;;;;;;;;28.80;26.40;;;;;29.51;46.68;98955.75;5021544;28;8857;-78
2022/09/01 02:13:46;;;;;;;;;26.00;23.60;;;;;29.50;46.22;98957.56;5088308;28;8958;-80
2022/09/01 02:16:15;;;;;;;;;26.60;25.20;;;;;29.51;46.29;98953.06;5074398;28;8885;-78
2022/09/01 02:18:47;;;;;;;;;29.00;29.00;;;;;29.54;46.45;98953.59;5093122;28;8994;-79
2022/09/01 02:21:19;;;;;;;;;24.40;23.20;;;;;29.43;46.98;98948.34;5111360;27;8871;-80
2022/09/01 02:23:48;;;;;;;;;25.75;25.75;;;;;29.26;47.21;98949.84;5101412;28;8848;-78
2022/09/01 02:26:21;;;;;;;;;25.80;25.60;;;;;29.10;47.46;98946.78;5126761;27;8845;-79
2022/09/01 02:28:50;;;;;;;;;26.20;24.40;;;;;29.07;47.42;98949.72;5093280;28;8826;-81
2022/09/01 02:31:27;;;;;;;;;29.20;25.20;;;;;29.10;47.11;98949.47;5111927;28;8857;-81
2022/09/01 02:34:00;;;;;;;;;23.40;22.40;;;;;29.16;47.44;98954.31;5110127;28;8861;-77
2022/09/01 02:36:31;;;;;;;;;27.00;26.60;;;;;29.12;47.44;98952.84;5115966;27;8838;-81
2022/09/01 02:39:01;;;;;;;;;29.00;27.40;;;;;28.81;48.30;98949.28;5130162;27;8860;-78
2022/09/01 02:41:33;;;;;;;;;28.00;27.60;;;;;28.82;47.98;98951.00;5113826;27;8834;-78
2022/09/01 02:44:10;;;;;;;;;29.20;28.00;;;;;28.86;48.26;98942.53;5066651;28;8870;-80
2022/09/01 02:46:41;;;;;;;;;31.60;27.80;;;;;28.90;47.70;98941.31;5051426;28;9678;-78
2022/09/01 02:49:14;;;;;;;;;24.60;24.60;;;;;28.85;48.04;98948.06;5050722;28;8844;-78
2022/09/01 02:51:44;;;;;;;;;25.20;24.00;;;;;28.93;47.94;98945.56;5050977;28;8894;-79
2022/09/01 02:54:15;;;;;;;;;28.40;27.20;;;;;29.07;47.86;98947.03;5034510;28;8839;-81
2022/09/01 02:56:47;;;;;;;;;27.40;27.00;;;;;29.13;47.39;98939.34;5027198;28;8853;-81
2022/09/01 02:59:15;;;;;;;;;29.40;29.00;;;;;29.16;47.58;98940.88;5071267;28;8836;-82
2022/09/01 03:01:46;;;;;;;;;22.00;21.60;;;;;29.20;47.09;98934.25;5034826;28;8875;-71
2022/09/01 03:04:15;;;;;;;;;25.40;25.40;;;;;29.18;47.63;98930.88;5066777;28;8859;-69
2022/09/01 03:06:44;;;;;;;;;29.00;27.60;;;;;29.13;47.15;98939.34;5067423;28;8875;-70
2022/09/01 03:09:16;;;;;;;;;26.80;26.20;;;;;29.17;47.48;98934.53;5050919;28;8886;-71
2022/09/01 03:11:49;;;;;;;;;26.60;23.40;;;;;29.19;47.56;98937.94;5050169;28;8863;-71
2022/09/01 03:14:18;;;;;;;;;28.20;25.00;;;;;29.20;47.16;98930.72;5067854;28;8861;-76
2022/09/01 03:16:47;;;;;;;;;27.20;26.40;;;;;29.21;47.26;98933.28;5094847;28;8845;-77
2022/09/01 03:19:17;;;;;;;;;26.00;25.40;;;;;29.02;47.97;98936.69;5110644;27;8872;-76
2022/09/01 03:21:47;;;;;;;;;115.50;107.50;;;;;29.11;47.69;98933.22;5123885;27;8837;-76
2022/09/01 03:24:21;;;;;;;;;54.00;44.75;;;;;29.00;47.97;98929.75;5134209;27;11616;-76
2022/09/01 03:26:52;;;;;;;;;28.75;28.75;;;;;28.99;48.09;98930.75;5118230;27;8941;-75
2022/09/01 03:29:21;;;;;;;;;33.25;30.00;;;;;29.00;47.97;98932.44;5144270;27;8870;-73
2022/09/01 03:31:49;;;;;;;;;29.40;28.40;;;;;29.01;47.94;98923.41;5147711;27;8862;-75
2022/09/01 03:34:22;;;;;;;;;33.20;30.80;;;;;28.91;48.21;98926.88;5153549;27;8865;-79
2022/09/01 03:36:53;;;;;;;;;25.00;24.00;;;;;29.02;48.14;98930.47;5145774;27;8870;-77
2022/09/01 03:39:29;;;;;;;;;31.20;29.40;;;;;28.96;48.14;98926.47;5123016;27;8890;-77
2022/09/01 03:42:00;;;;;;;;;30.00;29.00;;;;;28.91;47.95;98923.34;5116363;27;8858;-78
2022/09/01 03:44:28;;;;;;;;;30.20;29.80;;;;;28.86;48.60;98922.91;5131725;27;9682;-77
2022/09/01 03:46:57;;;;;;;;;30.80;29.20;;;;;28.95;47.73;98924.78;5107028;27;8842;-77
2022/09/01 03:49:27;;;;;;;;;28.25;27.75;;;;;29.05;48.08;98928.34;5112281;27;8835;-77
2022/09/01 03:51:57;;;;;;;;;34.20;30.00;;;;;29.05;47.91;98930.19;5129823;27;8988;-77
2022/09/01 03:54:29;;;;;;;;;30.20;29.60;;;;;29.17;47.83;98934.53;5112536;27;9616;-78
2022/09/01 03:56:59;;;;;;;;;40.75;35.25;;;;;29.20;47.53;98930.72;5073772;28;8916;-76
2022/09/01 03:59:29;;;;;;;;;27.25;24.00;;;;;29.20;47.50;98930.72;5107068;28;8852;-76
2022/09/01 04:01:58;;;;;;;;;33.75;30.25;;;;;29.18;47.34;98936.22;5106608;28;8938;-77
2022/09/01 04:04:30;;;;;;;;;27.20;26.80;;;;;29.24;47.52;98932.16;5088427;28;8844;-77
2022/09/01 04:07:00;;;;;;;;;25.00;24.00;;;;;29.13;47.20;98946.53;5023295;28;8829;-78
2022/09/01 04:09:30;;;;;;;;;29.40;26.60;;;;;29.18;47.50;98932.72;5056278;28;9452;-76
2022/09/01 04:11:59;;;;;;;;;32.00;28.60;;;;;29.23;47.19;98933.16;5072422;28;8825;-77
2022/09/01 04:14:28;;;;;;;;;38.50;34.00;;;;;29.25;47.41;98923.97;5090044;28;9703;-76
2022/09/01 04:19:44;;;;;;;;;25.80;25.60;;;;;28.65;48.72;98931.81;5089558;28;8809;-78
2022/09/01 04:22:14;;;;;;;;;36.75;32.75;;;;;28.71;48.78;98925.06;5071159;28;8975;-78
2022/09/01 04:24:44;;;;;;;;;33.25;31.75;;;;;28.69;48.74;98924.34;5103659;28;8833;-77
2022/09/01 04:27:16;;;;;;;;;35.40;28.80;;;;;28.57;49.20;98926.25;5091508;27;8817;-80
2022/09/01 04:29:46;;;;;;;;;36.50;32.00;;;;;28.68;49.14;98919.97;5125350;27;8872;-78
2022/09/01 04:32:15;;;;;;;;;33.00;30.50;;;;;28.56;49.59;98930.78;5128019;27;8846;-79
2022/09/01 04:34:48;;;;;;;;;35.75;33.25;;;;;28.43;50.14;98935.47;5127890;27;8846;-80
2022/09/01 04:37:20;;;;;;;;;28.25;28.25;;;;;28.36;50.39;98934.25;5127746;27;8890;-80
2022/09/01 04:39:59;;;;;;;;;34.33;32.00;;;;;28.44;50.42;98937.13;5107722;27;8866;-78
2022/09/01 04:42:31;;;;;;;;;35.00;33.25;;;;;28.54;50.35;98938.09;5110543;27;8933;-80
2022/09/01 04:45:05;;;;;;;;;35.00;32.75;;;;;28.48;50.21;98945.78;5128137;27;8835;-76
2022/09/01 04:47:41;;;;;;;;;33.25;30.75;;;;;28.54;50.04;98943.44;5126684;27;8830;-79
2022/09/01 04:50:16;;;;;;;;;39.00;35.25;;;;;28.66;49.84;98949.63;5128068;27;8853;-79
2022/09/01 04:53:06;;;;;;;;;36.75;33.50;;;;;28.75;49.64;98939.91;5148977;27;8847;-77
2022/09/01 04:55:42;;;;;;;;;35.75;33.00;;;;;28.75;49.65;98948.84;5127931;27;8844;-78
2022/09/01 04:58:17;;;;;;;;;44.00;34.75;;;;;28.97;49.28;98944.28;5123597;27;8842;-77
2022/09/01 05:00:48;;;;;;;;;41.00;35.00;;;;;28.97;49.36;98945.13;5136199;27;8998;-77
2022/09/01 05:03:22;;;;;;;;;31.50;30.25;;;;;29.07;49.20;98947.88;5094716;27;8841;-78
2022/09/01 05:06:02;;;;;;;;;45.25;34.00;;;;;29.17;48.93;98950.66;5130460;27;8900;-78
2022/09/01 05:08:34;;;;;;;;;39.00;34.00;;;;;28.65;50.87;98949.75;5130537;27;8861;-80
2022/09/01 05:11:08;;;;;;;;;35.25;32.50;;;;;28.64;50.68;98943.53;5121509;27;8835;-81
2022/09/01 05:13:47;;;;;;;;;37.50;32.50;;;;;28.86;50.42;98942.53;5054844;28;8861;-79
2022/09/01 05:16:20;;;;;;;;;36.50;31.25;;;;;28.89;50.28;98939.59;5105015;28;8872;-80
2022/09/01 05:18:55;;;;;;;;;34.40;30.60;;;;;29.01;49.67;98937.66;5055503;28;8844;-78
2022/09/01 05:21:28;;;;;;;;;34.00;31.80;;;;;29.12;50.06;98936.75;5086526;28;8960;-76
2022/09/01 05:24:00;;;;;;;;;41.00;36.25;;;;;28.86;50.79;98930.94;5089041;28;8866;-79
2022/09/01 05:26:30;;;;;;;;;34.25;31.00;;;;;28.78;50.96;98924.41;5069747;28;8859;-78
2022/09/01 05:29:09;;;;;;;;;36.25;31.25;;;;;28.81;50.85;98922.44;5098820;28;8840;-77
2022/09/01 05:31:39;;;;;;;;;36.25;33.25;;;;;28.89;50.68;98919.97;5089124;28;8936;-77
2022/09/01 05:34:09;;;;;;;;;36.25;33.00;;;;;28.96;50.34;98927.34;5090661;28;8885;-77
2022/09/01 05:36:44;;;;;;;;;35.25;30.50;;;;;28.94;50.22;98929.31;5072191;28;8866;-79
2022/09/01 05:39:13;;;;;;;;;36.00;32.50;;;;;28.89;50.49;98936.91;5071889;28;8868;-77
2022/09/01 05:41:44;;;;;;;;;41.00;35.00;;;;;28.75;50.80;98947.97;5075127;28;8840;-80
2022/09/01 05:44:15;;;;;;;;;38.50;31.50;;;;;29.00;50.32;98948.53;5110792;27;8857;-76
2022/09/01 05:46:45;;;;;;;;;39.75;34.00;;;;;28.50;51.60;98955.38;5153755;27;8823;-78
2022/09/01 05:49:14;;;;;;;;;44.00;34.50;;;;;28.35;52.02;98951.31;5117680;27;8955;-77
2022/09/01 05:51:48;;;;;;;;;38.50;34.25;;;;;28.43;51.48;98943.50;5106445;27;8885;-80
2022/09/01 05:54:24;;;;;;;;;39.50;34.00;;;;;28.63;51.10;98960.59;5133014;27;8831;-82
2022/09/01 05:56:56;;;;;;;;;37.25;33.50;;;;;28.25;51.91;98958.44;5115132;27;9005;-76
2022/09/01 05:59:39;;;;;;;;;32.50;30.50;;;;;28.02;52.57;98968.41;5115277;27;8859;-80
2022/09/01 06:02:16;;;;;;;;;31.40;29.80;;;;;28.19;51.93;98967.84;5116993;27;8839;-78
2022/09/01 06:04:45;;;;;;;;;33.00;31.60;;;;;28.08;52.09;98966.06;5133894;27;8890;-77
2022/09/01 06:07:22;;;;;;;;;35.25;33.00;;;;;27.99;52.31;98970.34;5135628;27;8859;-80
2022/09/01 06:09:55;;;;;;;;;36.25;31.50;;;;;28.13;52.10;98969.22;5135245;27;8831;-77
2022/09/01 06:12:25;;;;;;;;;31.25;30.50;;;;;27.61;53.50;98973.44;5122395;27;8873;-79
2022/09/01 06:14:55;;;;;;;;;31.00;28.40;;;;;27.34;54.64;98987.19;5115694;27;8857;-77
2022/09/01 06:17:29;;;;;;;;;32.60;29.60;;;;;26.51;56.24;98989.03;5131123;27;8834;-81
2022/09/01 06:20:09;;;;;;;;;33.40;29.40;;;;;26.08;57.16;98997.56;5129916;27;8849;-77
2022/09/01 06:22:40;;;;;;;;;30.60;27.80;;;;;26.35;56.60;98980.44;5113126;27;8879;-81
2022/09/01 06:25:10;;;;;;;;;28.40;28.00;;;;;26.14;56.38;99002.47;5052025;27;9594;-81
2022/09/01 06:27:43;;;;;;;;;27.60;24.00;;;;;26.29;56.19;98999.63;5121026;27;8883;-80
2022/09/01 06:30:19;;;;;;;;;26.20;23.60;;;;;25.61;57.45;99010.69;5133653;27;8851;-80
2022/09/01 06:33:12;;;;;;;;;21.00;20.00;;;;;25.73;57.51;99021.47;5115796;27;8836;-81
2022/09/01 06:35:46;;;;;;;;;22.80;22.80;;;;;25.78;57.58;99016.66;5074828;27;8860;-79
2022/09/01 06:38:17;;;;;;;;;25.80;25.00;;;;;25.44;58.41;99024.38;5114604;27;8841;-80
2022/09/01 06:40:48;;;;;;;;;26.00;25.20;;;;;25.42;58.55;99029.00;5119878;27;8847;-79
2022/09/01 06:43:22;;;;;;;;;28.60;25.40;;;;;25.12;60.02;99031.94;5117970;27;8835;-81
2022/09/01 06:45:53;;;;;;;;;31.20;28.20;;;;;25.63;58.21;99035.50;5114201;27;9044;-77
2022/09/01 06:48:29;;;;;;;;;35.80;30.40;;;;;24.75;61.81;99034.47;5097099;27;8909;-78
2022/09/01 06:51:08;;;;;;;;;38.00;32.25;;;;;24.29;64.14;99033.00;5110317;27;9060;-78
2022/09/01 06:53:55;;;;;;;;;40.50;35.25;;;;;23.64;66.95;99025.59;5103018;27;8860;-81
2022/09/01 06:56:28;;;;;;;;;31.00;28.40;;;;;23.78;62.91;99038.91;5117000;27;8976;-77
2022/09/01 06:59:04;;;;;;;;;29.60;27.60;;;;;23.66;61.72;99037.84;5096485;27;8875;-79
2022/09/01 07:01:38;;;;;;;;;23.00;21.20;;;;;24.04;59.35;99025.75;5085751;27;8874;-76
2022/09/01 07:04:31;;;;;;;;;17.60;17.20;;;;;24.43;56.78;99021.44;5146075;27;8851;-78
2022/09/01 07:07:04;;;;;;;;;18.60;18.00;;;;;24.54;55.59;99021.63;5152989;27;8931;-82
2022/09/01 07:09:56;;;;;;;;;17.40;17.00;;;;;25.13;53.78;99036.34;5152855;27;9626;-81
2022/09/01 07:12:50;;;;;;;;;15.40;14.20;;;;;25.55;52.67;99029.84;5109534;28;9652;-78
2022/09/01 07:15:38;;;;;;;;;21.20;19.40;;;;;25.91;51.69;99030.84;5063452;28;8871;-80
2022/09/01 07:18:30;;;;;;;;;16.80;15.20;;;;;26.12;50.34;99025.78;5075990;28;8860;-80
2022/09/01 07:21:06;;;;;;;;;16.80;16.60;;;;;26.04;50.74;99034.34;5108102;28;8946;-81
2022/09/01 07:23:56;;;;;;;;;16.40;15.60;;;;;26.25;50.42;99033.75;5074957;28;8859;-79
2022/09/01 07:26:58;;;;;;;;;14.40;13.80;;;;;26.45;50.17;99024.25;5075453;28;8969;-79
2022/09/01 07:29:35;;;;;;;;;16.40;15.20;;;;;26.72;49.42;99016.00;5093852;28;9676;-79
2022/09/01 07:32:07;;;;;;;;;19.00;17.00;;;;;26.74;49.02;99022.09;5072634;28;8892;-82
2022/09/01 07:34:57;;;;;;;;;13.80;13.20;;;;;26.05;51.48;99049.44;5063706;28;8855;-80
2022/09/01 07:37:28;;;;;;;;;17.20;17.20;;;;;25.49;53.77;99056.97;5069618;28;8840;-79
2022/09/01 07:40:21;;;;;;;;;16.80;16.80;;;;;25.33;54.94;99049.19;5065124;28;8838;-80
2022/09/01 07:43:30;;;;;;;;;17.40;17.20;;;;;25.72;54.99;99041.97;5079013;28;8847;-80
2022/09/01 07:46:20;;;;;;;;;17.20;13.00;;;;;25.38;55.08;99051.53;5090447;28;9014;-80
2022/09/01 07:49:10;;;;;;;;;16.20;16.20;;;;;25.55;54.30;99051.19;5087237;28;9750;-80
2022/09/01 07:52:02;;;;;;;;;31.60;28.20;;;;;25.27;54.35;99079.84;5091141;28;8836;-80
2022/09/01 07:54:32;;;;;;;;;19.20;17.80;;;;;24.00;58.95;99099.66;5101992;28;10751;-78
2022/09/01 07:57:01;;;;;;;;;20.80;20.40;;;;;22.69;63.00;99112.78;5074794;28;9089;-80
2022/09/01 07:59:34;;;;;;;;;20.00;18.00;;;;;22.54;64.12;99103.03;5074323;28;8874;-78
2022/09/01 08:02:11;;;;;;;;;14.80;14.40;;;;;23.09;62.74;99091.88;5108314;28;8863;-78
2022/09/01 08:04:41;;;;;;;;;14.60;13.80;;;;;23.38;61.43;99091.06;5108830;28;8889;-82
2022/09/01 08:07:12;;;;;;;;;17.60;16.40;;;;;23.77;60.86;99085.09;5093933;28;8850;-83
2022/09/01 08:09:44;;;;;;;;;17.20;16.60;;;;;24.06;59.12;99077.09;5090843;27;8853;-81
2022/09/01 08:12:15;;;;;;;;;15.40;13.40;;;;;24.16;58.22;99074.72;5112535;27;8857;-79
2022/09/01 08:14:52;;;;;;;;;15.00;14.60;;;;;24.34;57.83;99076.19;5089871;28;8879;-81
2022/09/01 08:17:42;;;;;;;;;16.00;14.40;;;;;24.60;57.19;99071.00;5081222;28;8831;-79
2022/09/01 08:20:19;;;;;;;;;14.20;14.00;;;;;24.62;56.21;99080.59;5072245;28;9559;-79
2022/09/01 08:22:54;;;;;;;;;11.40;10.60;;;;;24.77;55.45;99081.41;5073705;28;8909;-79
2022/09/01 08:25:42;;;;;;;;;15.80;14.40;;;;;24.88;55.04;99089.53;5041561;28;8894;-78
2022/09/01 08:28:12;;;;;;;;;12.20;12.20;;;;;25.06;54.94;99086.59;5055697;28;9031;-78
2022/09/01 08:30:44;;;;;;;;;16.60;15.80;;;;;25.11;53.61;99095.13;5086674;28;8941;-83
2022/09/01 08:33:24;;;;;;;;;16.40;16.40;;;;;24.98;53.35;99115.59;5105708;28;8852;-79
2022/09/01 08:35:55;;;;;;;;;20.60;17.80;;;;;23.15;59.10;99128.75;5094629;28;8832;-83
2022/09/01 08:38:26;;;;;;;;;13.00;13.00;;;;;22.05;63.18;99143.78;5081630;28;8938;-78
2022/09/01 08:40:59;;;;;;;;;14.60;13.80;;;;;21.60;65.00;99138.16;5068241;28;8855;-76
2022/09/01 08:43:47;;;;;;;;;13.80;13.00;;;;;20.68;67.63;99152.53;5068424;28;8871;-79
2022/09/01 08:46:23;;;;;;;;;13.00;13.00;;;;;20.76;67.30;99137.97;5116435;27;8841;-78
2022/09/01 08:48:55;;;;;;;;;13.80;12.80;;;;;20.51;67.69;99140.06;5062442;27;8882;-78
2022/09/01 08:52:11;;;;;;;;;18.00;17.00;;;;;21.14;65.77;99121.09;5148412;27;8859;-80
2022/09/01 08:54:46;;;;;;;;;17.40;15.80;;;;;21.90;64.00;99107.44;5127920;27;8839;-77
2022/09/01 08:57:20;;;;;;;;;21.00;15.80;;;;;22.31;62.41;99107.84;5114862;27;8877;-78
2022/09/01 09:00:11;;;;;;;;;20.00;20.00;;;;;22.32;61.00;99117.50;5118613;27;8849;-78
2022/09/01 09:02:51;;;;;;;;;18.20;18.00;;;;;21.94;63.10;99114.28;5144803;27;8845;-76
2022/09/01 09:05:42;;;;;;;;;16.60;16.60;;;;;21.12;66.00;99137.09;5100243;27;8857;-75
2022/09/01 09:08:28;;;;;;;;;15.20;15.20;;;;;20.44;69.25;99139.50;5097354;27;8830;-76
2022/09/01 09:11:07;;;;;;;;;16.40;15.00;;;;;20.56;68.58;99130.13;5147261;27;8855;-75
2022/09/01 09:13:48;;;;;;;;;13.00;11.60;;;;;20.45;68.83;99141.22;5131188;27;8842;-77
2022/09/01 09:16:23;;;;;;;;;17.40;15.60;;;;;20.79;67.84;99135.19;5129410;27;8849;-77
2022/09/01 09:18:56;;;;;;;;;19.20;16.80;;;;;20.90;67.72;99139.94;5112690;27;8885;-77
2022/09/01 09:21:29;;;;;;;;;17.00;16.00;;;;;20.68;67.88;99141.94;5137364;27;8873;-78
2022/09/01 09:24:06;;;;;;;;;17.60;16.40;;;;;20.86;67.77;99129.59;5118716;27;8926;-77
2022/09/01 09:26:37;;;;;;;;;16.00;14.80;;;;;20.62;68.07;99137.78;5113597;27;8886;-78
2022/09/01 09:29:13;;;;;;;;;15.80;15.80;;;;;20.42;69.04;99136.94;5128998;27;8831;-78
2022/09/01 09:31:47;;;;;;;;;18.60;17.20;;;;;20.25;69.88;99150.13;5113928;27;8882;-73
2022/09/01 09:34:31;;;;;;;;;18.00;18.00;;;;;20.38;69.66;99132.72;5089522;27;8853;-72
2022/09/01 09:37:20;;;;;;;;;21.00;21.00;;;;;20.60;68.29;99135.25;5094214;27;8905;-71
2022/09/01 09:40:20;;;;;;;;;22.60;21.00;;;;;21.26;66.85;99119.63;5141169;27;8851;-73
2022/09/01 09:43:07;;;;;;;;;16.80;16.80;;;;;21.83;65.52;99121.97;5080057;28;8853;-74
2022/09/01 09:45:39;;;;;;;;;19.40;19.20;;;;;21.15;65.91;99129.00;5031475;28;9664;-70
2022/09/01 09:48:26;;;;;;;;;16.80;15.40;;;;;21.26;65.53;99128.41;5079300;28;8934;-72
2022/09/01 09:51:14;;;;;;;;;21.20;20.20;;;;;21.15;66.48;99136.06;5067402;28;8856;-72
2022/09/01 09:53:43;;;;;;;;;18.60;16.60;;;;;21.12;65.28;99145.03;5089164;28;8951;-79
2022/09/01 09:56:19;;;;;;;;;19.00;17.60;;;;;21.29;65.08;99153.94;5070589;28;9002;-80
2022/09/01 09:58:52;;;;;;;;;19.00;17.80;;;;;20.82;67.74;99158.88;5048720;28;9694;-79
2022/09/01 10:01:30;;;;;;;;;20.60;20.00;;;;;21.25;65.26;99157.66;5015722;28;9309;-78
2022/09/01 10:04:02;;;;;;;;;17.00;16.40;;;;;20.67;67.80;99166.72;5057064;28;8849;-77
2022/09/01 10:06:34;;;;;;;;;21.20;19.00;;;;;20.68;68.89;99163.13;5074074;28;8845;-78
2022/09/01 10:09:05;;;;;;;;;24.00;22.80;;;;;20.53;69.37;99168.22;5000962;28;8868;-80
2022/09/01 10:11:39;;;;;;;;;27.60;27.60;;;;;21.18;67.70;99165.94;5066615;28;8856;-80
2022/09/01 10:14:17;;;;;;;;;26.20;25.00;;;;;21.41;65.74;99159.47;5048983;28;8862;-78
2022/09/01 10:17:12;;;;;;;;;28.20;26.80;;;;;21.23;66.46;99160.44;5090656;27;8875;-80
2022/09/01 10:19:53;;;;;;;;;29.40;26.40;;;;;21.14;66.10;99164.38;5113788;27;8831;-78
2022/09/01 10:22:23;;;;;;;;;22.20;21.20;;;;;20.93;67.28;99160.16;5109930;27;8954;-79
2022/09/01 10:24:52;;;;;;;;;32.60;28.60;;;;;21.09;68.19;99157.59;5094671;27;8864;-80
2022/09/01 10:27:25;;;;;;;;;23.80;22.60;;;;;21.38;67.47;99153.47;5123847;27;8859;-80
2022/09/01 10:30:02;;;;;;;;;27.20;26.00;;;;;21.01;67.36;99156.19;5116241;27;8862;-81
2022/09/01 10:32:51;;;;;;;;;29.80;28.60;;;;;21.00;68.50;99150.94;5085778;27;8857;-78
2022/09/01 10:35:28;;;;;;;;;23.20;23.20;;;;;21.22;66.87;99151.59;5124545;27;8850;-79
2022/09/01 10:37:59;;;;;;;;;30.20;27.00;;;;;21.70;65.21;99149.19;5125944;27;8859;-78
2022/09/01 10:40:40;;;;;;;;;31.00;28.00;;;;;21.90;64.34;99147.25;5142578;27;8893;-77
2022/09/01 10:43:30;;;;;;;;;25.80;24.60;;;;;22.08;63.71;99148.94;5099294;27;8943;-77
2022/09/01 10:46:47;;;;;;;;;23.60;22.60;;;;;21.47;65.85;99152.16;5113600;27;8992;-68
2022/09/01 10:49:36;;;;;;;;;25.40;24.40;;;;;21.33;66.83;99142.25;5046423;28;9591;-71
2022/09/01 10:52:05;;;;;;;;;24.40;23.40;;;;;21.88;64.98;99142.03;4956660;28;8864;-65
2022/09/01 10:55:01;;;;;;;;;27.00;23.60;;;;;21.60;65.24;99145.28;4966004;28;8953;-67
2022/09/01 10:57:48;;;;;;;;;24.00;24.00;;;;;21.49;66.41;99137.88;4967447;28;8874;-65
2022/09/01 11:00:52;;;;;;;;;28.20;26.40;;;;;21.65;65.79;99129.13;4951235;28;8894;-64
2022/09/01 11:03:53;;;;;;;;;25.60;24.40;;;;;20.99;67.70;99133.34;4967836;28;8863;-66
2022/09/01 11:06:53;;;;;;;;;28.60;28.20;;;;;21.29;67.00;99127.44;4967302;28;9088;-67
2022/09/01 11:09:44;;;;;;;;;27.60;27.60;;;;;21.37;66.40;99126.06;4944813;29;8869;-64
2022/09/01 11:12:37;;;;;;;;;28.60;28.20;;;;;20.95;67.06;99121.19;4929230;29;9595;-66
2022/09/01 11:15:38;;;;;;;;;31.80;28.20;;;;;21.24;67.52;99119.69;4929167;29;8852;-68
2022/09/01 11:18:14;;;;;;;;;27.80;26.60;;;;;20.86;68.83;99129.59;4928981;29;8930;-66
2022/09/01 11:20:47;;;;;;;;;31.80;29.60;;;;;20.98;68.55;99134.25;4928576;29;8876;-69
2022/09/01 11:23:24;;;;;;;;;25.80;25.80;;;;;21.08;68.15;99130.22;4929210;29;9033;-64
2022/09/01 11:25:58;;;;;;;;;27.20;27.20;;;;;21.03;68.61;99126.94;4987423;28;8864;-67
2022/09/01 11:28:47;;;;;;;;;30.20;28.00;;;;;21.25;67.75;99133.81;5039080;28;8862;-67
2022/09/01 11:31:26;;;;;;;;;28.80;26.40;;;;;21.24;68.43;99138.25;5085859;28;8880;-66
2022/09/01 11:34:12;;;;;;;;;28.40;28.40;;;;;21.68;66.97;99132.50;5036039;28;8923;-66
2022/09/01 11:37:02;;;;;;;;;26.40;25.60;;;;;21.95;66.01;99131.94;5068101;28;8922;-64
2022/09/01 11:39:41;;;;;;;;;29.00;27.80;;;;;21.70;66.10;99138.56;5026240;28;8873;-66
2022/09/01 11:42:17;;;;;;;;;24.40;23.20;;;;;21.56;66.47;99135.78;5026096;28;9609;-63
2022/09/01 11:44:51;;;;;;;;;28.00;26.40;;;;;21.76;66.88;99140.03;5026180;28;8911;-67
2022/09/01 11:47:25;;;;;;;;;31.80;28.40;;;;;22.09;65.51;99144.47;5060402;28;8851;-67
2022/09/01 11:49:58;;;;;;;;;24.20;22.20;;;;;21.87;65.99;99137.66;5056915;28;8960;-65
2022/09/01 11:52:30;;;;;;;;;26.00;26.00;;;;;21.78;66.16;99133.69;5086374;28;8841;-64
2022/09/01 11:55:00;;;;;;;;;27.60;25.80;;;;;22.03;65.66;99139.50;5085985;28;8884;-63
2022/09/01 11:57:32;;;;;;;;;31.20;30.80;;;;;21.92;66.30;99132.09;5086153;28;8834;-69
2022/09/01 12:00:05;;;;;;;;;23.80;22.80;;;;;21.85;66.04;99138.69;5085967;28;8846;-64
2022/09/01 12:02:44;;;;;;;;;24.60;24.60;;;;;21.95;65.98;99124.84;5080786;28;10201;-67
2022/09/01 12:05:26;;;;;;;;;29.40;28.40;;;;;22.15;65.50;99123.72;5085410;28;10222;-67
2022/09/01 12:07:56;;;;;;;;;27.20;25.80;;;;;22.45;64.33;99127.47;5085689;28;8855;-70
2022/09/01 12:10:32;;;;;;;;;21.40;19.20;;;;;22.46;64.24;99124.72;5078176;28;8852;-69